Time;durP1;ratioP1;P1;durP2;ratioP2;P2;SDS_P1;SDS_P2;PMS_P1;PMS_P2;Temp;Humidity;BMP_temperature;BMP_pressure;BME280_temperature;BME280_humidity;BME280_pressure;Samples;Min_cycle;Max_cycle;Signal;HPM_P1;HPM_P2
2022/05/24 00:00:09;;;;;;;1.77;1.23;;;;;;;16.51;63.85;95209.66;10419568;27;99864;-70
2022/05/24 00:05:13;;;;;;;4.22;1.50;;;;;;;16.57;63.91;95216.72;10416536;27;96981;-70
2022/05/24 00:10:17;;;;;;;;;;;;;;;16.49;63.68;95216.97;10415747;27;98185;-70
2022/05/24 00:15:23;;;;;;;4.18;1.60;;;;;;;16.34;64.59;95205.88;10414308;27;98520;-69
2022/05/24 00:20:30;;;;;;;3.50;1.40;;;;;;;16.20;65.00;95218.28;10410255;27;98220;-68
2022/05/24 00:25:35;;;;;;;3.90;1.50;;;;;;;16.14;65.67;95219.94;10412463;27;98473;-68
2022/05/24 00:30:39;;;;;;;2.90;1.40;;;;;;;16.13;65.46;95196.44;10410926;27;98983;-68
2022/05/24 00:35:44;;;;;;;4.97;1.17;;;;;;;16.20;64.65;95213.03;10411270;27;99154;-68
2022/05/24 00:40:59;;;;;;;6.13;1.48;;;;;;;16.13;64.26;95220.94;10410207;27;97907;-69
2022/05/24 00:46:03;;;;;;;;;;;;;;;16.02;64.31;95213.69;10412470;27;96828;-69
2022/05/24 00:51:10;;;;;;;2.20;1.00;;;;;;;16.09;63.84;95218.94;10410566;27;96904;-68
2022/05/24 00:56:19;;;;;;;3.60;1.10;;;;;;;16.10;62.92;95229.25;10409608;27;99135;-68
2022/05/24 01:01:31;;;;;;;1.50;0.80;;;;;;;16.00;63.03;95223.63;10413450;27;98759;-69
2022/05/24 01:06:36;;;;;;;2.97;1.10;;;;;;;15.89;63.31;95227.69;10409417;27;97620;-69
2022/05/24 01:11:43;;;;;;;3.40;0.93;;;;;;;15.94;63.31;95219.16;10409859;27;96988;-68
2022/05/24 01:16:47;;;;;;;5.65;1.30;;;;;;;15.98;62.28;95225.63;10404362;27;98544;-68
2022/05/24 01:21:52;;;;;;;3.58;0.98;;;;;;;15.97;62.06;95213.50;10408584;27;97758;-70
2022/05/24 01:26:58;;;;;;;2.90;1.10;;;;;;;15.94;62.19;95232.34;10413913;27;98729;-69
2022/05/24 01:37:22;;;;;;;2.33;0.90;;;;;;;15.94;60.34;95219.97;10408827;27;97692;-68
2022/05/24 01:42:28;;;;;;;3.85;1.00;;;;;;;15.95;60.45;95239.25;10411192;27;97825;-69
2022/05/24 01:47:33;;;;;;;4.70;1.20;;;;;;;15.86;60.77;95239.44;10414191;27;97662;-69
2022/05/24 01:52:40;;;;;;;2.75;1.33;;;;;;;15.78;60.81;95242.28;10407020;27;99146;-68
2022/05/24 01:57:49;;;;;;;2.78;0.85;;;;;;;15.71;60.60;95230.97;10410789;27;97814;-69
2022/05/24 02:02:52;;;;;;;1.67;0.75;;;;;;;15.74;59.61;95241.09;10406177;27;98553;-68
2022/05/24 02:07:55;;;;;;;2.00;0.82;;;;;;;15.75;58.88;95234.78;10411195;27;99241;-68
2022/05/24 02:13:03;;;;;;;1.45;0.90;;;;;;;15.69;59.07;95218.00;10409396;27;98476;-68
2022/05/24 02:18:11;;;;;;;4.28;1.10;;;;;;;15.60;59.76;95213.13;10410736;27;98109;-68
2022/05/24 02:23:16;;;;;;;2.63;0.90;;;;;;;15.46;59.94;95223.66;10411722;27;98594;-68
2022/05/24 02:28:23;;;;;;;3.97;0.77;;;;;;;15.40;60.33;95234.97;10407861;27;98462;-68
2022/05/24 02:33:27;;;;;;;1.23;0.75;;;;;;;15.32;59.87;95243.06;10409279;27;96884;-68
2022/05/24 02:38:30;;;;;;;2.22;0.77;;;;;;;15.29;60.43;95248.75;10408011;27;97837;-68
2022/05/24 02:43:34;;;;;;;1.30;0.70;;;;;;;15.27;59.55;95251.59;10413424;27;97365;-68
2022/05/24 02:48:38;;;;;;;2.58;1.00;;;;;;;15.20;59.50;95252.56;10410046;27;97718;-68
2022/05/24 02:53:42;;;;;;;2.78;0.95;;;;;;;15.17;60.28;95256.44;10410469;27;98489;-68
2022/05/24 02:58:47;;;;;;;2.33;1.00;;;;;;;15.20;59.72;95249.94;10411295;27;99012;-69
2022/05/24 03:03:51;;;;;;;1.33;0.73;;;;;;;15.18;60.23;95252.78;10412205;27;101081;-68
2022/05/24 03:14:15;;;;;;;2.88;1.00;;;;;;;15.30;59.60;95260.88;10405632;27;97929;-68
2022/05/24 03:19:18;;;;;;;3.47;1.02;;;;;;;15.37;59.46;95263.53;10409899;27;98446;-69
2022/05/24 03:24:21;;;;;;;2.70;0.75;;;;;;;15.44;60.48;95278.31;10413126;27;97693;-68
2022/05/24 03:29:25;;;;;;;2.35;0.77;;;;;;;15.44;60.50;95280.13;10417600;27;96826;-68
2022/05/24 03:34:28;;;;;;;3.13;1.00;;;;;;;15.41;60.98;95307.69;10414790;27;97039;-68
2022/05/24 03:39:31;;;;;;;2.03;0.90;;;;;;;15.22;63.47;95306.63;10411826;27;98715;-68
2022/05/24 03:44:36;;;;;;;1.75;0.57;;;;;;;14.89;65.22;95306.56;10412943;27;96859;-68
2022/05/24 03:49:38;;;;;;;1.00;0.30;;;;;;;14.61;64.88;95309.25;10416343;27;98611;-68
2022/05/24 03:54:41;;;;;;;1.65;0.10;;;;;;;14.51;63.90;95326.19;10414668;27;97420;-68
2022/05/24 03:59:46;;;;;;;0.00;0.00;;;;;;;14.29;62.78;95303.63;10411613;27;99053;-68
2022/05/24 04:04:48;;;;;;;0.77;0.00;;;;;;;13.91;61.85;95299.53;10414193;27;97999;-68
2022/05/24 04:09:52;;;;;;;0.00;0.00;;;;;;;13.78;62.76;95288.97;10411282;27;98276;-68
2022/05/24 04:14:57;;;;;;;1.45;0.00;;;;;;;13.63;62.38;95305.59;10412031;27;97734;-68
2022/05/24 04:19:59;;;;;;;0.23;0.10;;;;;;;13.57;62.26;95340.47;10411952;27;98980;-68
2022/05/24 04:25:03;;;;;;;0.20;0.00;;;;;;;13.66;61.93;95317.53;10415131;27;96889;-68
2022/05/24 04:30:10;;;;;;;1.50;0.38;;;;;;;13.16;65.35;95321.91;10413311;27;98091;-69
2022/05/24 04:35:13;;;;;;;2.83;0.13;;;;;;;12.60;66.30;95325.88;10414002;27;97378;-69
2022/05/24 04:40:16;;;;;;;0.55;0.08;;;;;;;12.46;67.98;95324.91;10415439;27;96764;-69
2022/05/24 04:45:20;;;;;;;0.28;0.10;;;;;;;12.49;67.62;95339.44;10409931;27;98707;-69
2022/05/24 04:50:23;;;;;;;0.00;0.00;;;;;;;12.55;67.65;95335.31;10415711;27;98030;-68
2022/05/24 04:55:32;;;;;;;0.20;0.00;;;;;;;12.60;67.42;95328.50;10413198;27;96930;-68
2022/05/24 05:00:36;;;;;;;0.10;0.00;;;;;;;12.62;66.49;95363.19;10412773;27;97974;-68
2022/05/24 05:05:39;;;;;;;1.20;0.00;;;;;;;12.67;66.77;95381.00;10412805;27;97002;-68
2022/05/24 05:10:42;;;;;;;0.38;0.20;;;;;;;12.83;67.39;95383.41;10410243;27;99613;-69
2022/05/24 05:15:46;;;;;;;1.58;0.10;;;;;;;13.07;66.37;95380.72;10408880;27;99456;-68
2022/05/24 05:20:49;;;;;;;0.20;0.10;;;;;;;13.35;66.90;95381.63;10411655;27;96949;-68
2022/05/24 05:25:53;;;;;;;0.28;0.10;;;;;;;13.57;66.40;95382.47;10416187;27;98478;-69
2022/05/24 05:36:18;;;;;;;0.40;0.20;;;;;;;13.84;65.94;95393.19;10405930;27;100901;-68
2022/05/24 05:41:23;;;;;;;0.68;0.20;;;;;;;13.97;64.21;95388.06;10408079;27;98258;-69
2022/05/24 05:46:27;;;;;;;;;;;;;;;14.25;64.49;95392.50;10420033;27;96874;-68
2022/05/24 05:51:30;;;;;;;0.60;0.20;;;;;;;14.46;64.19;95404.00;10426041;27;97323;-68
2022/05/24 05:56:33;;;;;;;1.27;0.40;;;;;;;14.48;65.79;95423.00;10413841;27;97552;-68
2022/05/24 06:01:37;;;;;;;0.30;0.15;;;;;;;14.46;67.28;95427.66;10406624;27;97690;-68
2022/05/24 06:06:44;;;;;;;0.70;0.30;;;;;;;14.50;66.81;95426.25;10413616;27;97282;-68
2022/05/24 06:11:47;;;;;;;0.45;0.32;;;;;;;14.50;66.31;95434.13;10403868;27;99030;-68
2022/05/24 06:16:51;;;;;;;0.08;0.08;;;;;;;14.23;65.42;95456.72;10406328;27;97683;-68
2022/05/24 06:21:54;;;;;;;0.22;0.10;;;;;;;13.83;63.84;95470.34;10412132;27;98700;-67
2022/05/24 06:26:57;;;;;;;0.52;0.10;;;;;;;13.71;64.06;95487.56;10407341;27;97286;-69
2022/05/24 06:32:03;;;;;;;0.47;0.30;;;;;;;12.81;66.09;95487.63;10411916;28;97036;-68
2022/05/24 06:37:06;;;;;;;0.93;0.30;;;;;;;12.29;67.60;95477.97;10427548;27;96850;-68
2022/05/24 06:42:09;;;;;;;0.10;0.10;;;;;;;12.18;68.63;95460.06;10411390;27;97014;-68
2022/05/24 06:47:13;;;;;;;1.85;0.63;;;;;;;12.22;69.80;95480.50;10409230;27;98573;-68
2022/05/24 06:52:23;;;;;;;2.58;0.45;;;;;;;12.36;70.69;95520.00;10415911;27;98702;-67
2022/05/24 06:57:26;;;;;;;1.00;0.40;;;;;;;12.70;72.05;95511.69;10417302;27;98436;-68
2022/05/24 07:02:30;;;;;;;2.63;0.50;;;;;;;13.16;72.95;95516.78;10414460;27;101119;-68
2022/05/24 07:07:35;;;;;;;1.35;0.30;;;;;;;13.51;72.63;95524.88;10412282;27;97724;-67
2022/05/24 07:12:38;;;;;;;1.85;0.57;;;;;;;13.71;73.51;95529.56;10425776;27;100588;-67
2022/05/24 07:17:43;;;;;;;1.15;0.50;;;;;;;13.89;73.35;95522.09;10425898;27;97337;-67
2022/05/24 07:22:46;;;;;;;1.10;0.30;;;;;;;14.08;72.49;95519.84;10425808;27;96837;-67
2022/05/24 07:27:51;;;;;;;3.15;0.60;;;;;;;14.33;73.08;95531.66;10421918;27;96930;-67
2022/05/24 07:32:55;;;;;;;1.88;0.60;;;;;;;14.67;72.39;95551.13;10425378;27;98802;-67
2022/05/24 07:37:58;;;;;;;0.83;0.37;;;;;;;14.88;72.59;95549.47;10420580;27;97061;-68
2022/05/24 07:48:22;;;;;;;0.77;0.35;;;;;;;15.22;70.88;95553.16;10420651;27;97117;-67
2022/05/24 07:53:25;;;;;;;3.30;0.60;;;;;;;15.52;71.39;95560.78;10402736;27;96983;-67
2022/05/24 07:58:28;;;;;;;0.93;0.40;;;;;;;15.73;70.85;95552.00;10386725;28;97007;-67
2022/05/24 08:03:33;;;;;;;1.73;0.35;;;;;;;15.90;68.99;95547.19;10393232;28;96942;-67
2022/05/24 08:08:35;;;;;;;2.05;0.52;;;;;;;16.02;69.03;95542.97;10394437;27;96750;-68
2022/05/24 08:13:39;;;;;;;1.88;0.40;;;;;;;16.21;67.50;95551.94;10388362;28;96786;-67
2022/05/24 08:18:44;;;;;;;0.35;0.28;;;;;;;16.38;66.21;95552.34;10391373;28;96793;-67
2022/05/24 08:23:47;;;;;;;0.93;0.32;;;;;;;16.61;65.18;95554.63;10393426;28;96846;-67
2022/05/24 08:28:50;;;;;;;1.30;0.45;;;;;;;16.71;64.52;95564.75;10390042;28;97060;-67
2022/05/24 08:33:55;;;;;;;0.95;0.60;;;;;;;16.81;63.53;95557.28;10390636;28;97128;-67
2022/05/24 08:38:57;;;;;;;1.05;0.40;;;;;;;17.02;63.48;95550.19;10393271;28;96676;-68
2022/05/24 08:49:39;;;;;;;0.55;0.30;;;;;;;17.44;59.91;95550.69;10386377;28;96686;-68
2022/05/24 08:54:44;;;;;;;1.27;0.38;;;;;;;17.75;59.78;95558.75;10390648;28;96695;-67
2022/05/24 08:59:56;;;;;;;2.53;0.60;;;;;;;17.93;60.94;95549.34;10392714;28;96836;-68
2022/05/24 09:05:00;;;;;;;0.85;0.28;;;;;;;17.85;59.72;95555.66;10389328;27;98508;-68
2022/05/24 09:10:04;;;;;;;;;;;;;;;17.78;60.32;95552.22;10387557;27;97400;-67
2022/05/24 09:15:16;;;;;;;2.65;0.52;;;;;;;17.35;57.76;95552.75;10391939;28;96947;-67
2022/05/24 09:20:35;;;;;;;0.90;0.40;;;;;;;17.21;57.61;95554.59;10391774;28;96875;-68
2022/05/24 09:25:38;;;;;;;0.80;0.38;;;;;;;17.26;57.07;95544.25;10386531;28;96760;-67
2022/05/24 09:30:45;;;;;;;1.98;0.30;;;;;;;17.05;56.90;95542.66;10389697;28;96996;-68
2022/05/24 09:35:54;;;;;;;2.00;0.28;;;;;;;17.00;56.29;95545.94;10391632;27;96977;-67
2022/05/24 09:41:03;;;;;;;0.93;0.40;;;;;;;17.27;55.29;95540.59;10387065;27;96698;-68
2022/05/24 09:46:09;;;;;;;1.17;0.43;;;;;;;17.46;54.88;95546.03;10385647;28;96903;-67
2022/05/24 09:51:14;;;;;;;2.45;0.40;;;;;;;17.86;53.54;95548.56;10390676;28;96944;-68
2022/05/24 09:56:23;;;;;;;0.68;0.40;;;;;;;18.15;53.02;95544.56;10390830;28;96670;-67
2022/05/24 10:01:35;;;;;;;1.15;0.45;;;;;;;18.38;51.32;95545.84;10383823;28;96844;-68
2022/05/24 10:06:41;;;;;;;1.08;0.30;;;;;;;18.75;51.10;95541.50;10387191;28;96853;-68
2022/05/24 10:11:50;;;;;;;1.52;0.35;;;;;;;18.94;50.81;95536.28;10390766;27;96872;-68
2022/05/24 10:17:02;;;;;;;2.42;0.40;;;;;;;19.36;48.65;95541.78;10387578;28;96884;-68
2022/05/24 10:22:17;;;;;;;1.40;0.47;;;;;;;19.58;47.34;95542.16;10384695;28;96811;-67
2022/05/24 10:27:30;;;;;;;2.15;0.25;;;;;;;19.49;46.69;95541.66;10389413;28;97389;-68
2022/05/24 10:38:24;;;;;;;0.82;0.43;;;;;;;19.78;46.41;95536.59;10387984;28;96960;-68
2022/05/24 10:43:54;;;;;;;1.15;0.45;;;;;;;20.09;45.11;95529.53;10382095;28;97211;-68
2022/05/24 10:49:06;;;;;;;1.35;0.30;;;;;;;20.20;46.42;95526.13;10397584;28;96721;-68
2022/05/24 10:54:17;;;;;;;0.75;0.38;;;;;;;20.49;44.51;95518.34;10389384;28;97125;-69
2022/05/24 10:59:30;;;;;;;1.23;0.40;;;;;;;20.71;44.70;95526.56;10389333;28;96793;-68
2022/05/24 11:04:43;;;;;;;1.70;0.30;;;;;;;20.64;42.87;95521.38;10382746;28;96853;-68
2022/05/24 11:09:55;;;;;;;2.65;0.47;;;;;;;19.80;45.72;95523.94;10386765;28;98588;-68
2022/05/24 11:15:07;;;;;;;1.85;0.50;;;;;;;19.71;44.35;95523.44;10388843;28;97003;-68
2022/05/24 11:20:12;;;;;;;0.20;0.20;;;;;;;20.07;44.88;95515.69;10387049;28;97095;-68
2022/05/24 11:25:21;;;;;;;1.02;0.40;;;;;;;20.41;43.49;95513.34;10380432;27;96840;-67
2022/05/24 11:30:36;;;;;;;0.70;0.30;;;;;;;20.90;43.12;95511.38;10387882;28;99884;-67
2022/05/24 11:35:42;;;;;;;1.20;0.35;;;;;;;21.51;41.98;95504.75;10388822;28;96803;-67
2022/05/24 11:41:01;;;;;;;1.60;0.40;;;;;;;21.90;41.33;95501.56;10387169;28;96871;-68
2022/05/24 11:46:41;;;;;;;1.23;0.30;;;;;;;22.02;41.57;95489.03;10403376;28;97482;-68
2022/05/24 11:51:45;;;;;;;0.63;0.30;;;;;;;22.20;41.07;95495.97;10391525;28;97478;-68
2022/05/24 11:56:54;;;;;;;0.82;0.43;;;;;;;22.28;40.71;95493.97;10394755;28;96975;-68
2022/05/24 12:01:57;;;;;;;1.58;0.50;;;;;;;22.31;40.51;95488.19;10391810;28;96712;-68
2022/05/24 12:12:58;;;;;;;1.55;0.52;;;;;;;22.01;40.45;95484.72;10402889;28;96857;-68
2022/05/24 12:18:16;;;;;;;1.38;0.57;;;;;;;22.41;39.75;95481.16;10392562;28;97195;-68
2022/05/24 12:23:34;;;;;;;0.30;0.25;;;;;;;22.30;38.66;95482.06;10393997;27;96697;-68
2022/05/24 12:28:50;;;;;;;1.15;0.35;;;;;;;21.98;39.48;95487.88;10387371;27;96707;-68
2022/05/24 12:33:55;;;;;;;1.40;0.47;;;;;;;21.78;40.69;95476.84;10401578;28;96898;-68
2022/05/24 12:39:01;;;;;;;0.80;0.40;;;;;;;21.73;39.46;95477.56;10393498;28;96665;-68
2022/05/24 12:44:13;;;;;;;2.28;0.40;;;;;;;21.91;39.26;95478.44;10390654;28;98278;-68
2022/05/24 12:49:23;;;;;;;1.13;0.38;;;;;;;22.51;38.45;95483.22;10385633;28;96759;-69
2022/05/24 12:54:29;;;;;;;1.17;0.65;;;;;;;22.52;38.60;95471.53;10391653;27;97132;-68
2022/05/24 12:59:37;;;;;;;1.80;0.60;;;;;;;22.39;39.20;95474.50;10392692;28;96995;-68
2022/05/24 13:04:40;;;;;;;0.75;0.40;;;;;;;22.30;38.41;95462.59;10386994;28;97156;-68
2022/05/24 13:09:44;;;;;;;2.07;0.40;;;;;;;22.47;38.45;95462.66;10388562;28;97356;-68
2022/05/24 13:14:56;;;;;;;0.35;0.22;;;;;;;22.58;38.54;95459.91;10392166;28;96840;-68
2022/05/24 13:20:03;;;;;;;2.17;0.40;;;;;;;22.60;38.41;95441.06;10389299;28;96788;-68
2022/05/24 13:25:12;;;;;;;0.65;0.28;;;;;;;22.71;37.44;95447.31;10386076;28;97350;-68
2022/05/24 13:35:45;;;;;;;2.35;0.50;;;;;;;22.37;38.76;95436.66;10391342;28;96798;-68
2022/05/24 13:40:53;;;;;;;1.95;0.50;;;;;;;22.59;37.59;95444.75;10386836;28;96854;-68
2022/05/24 13:46:08;;;;;;;1.95;0.40;;;;;;;22.66;36.59;95444.59;10400368;28;96998;-69
2022/05/24 13:51:19;;;;;;;1.42;0.50;;;;;;;22.66;36.11;95439.25;10391453;28;96992;-69
2022/05/24 13:56:25;;;;;;;1.17;0.30;;;;;;;22.51;37.38;95431.84;10391356;28;96824;-69
2022/05/24 14:01:34;;;;;;;0.80;0.40;;;;;;;22.45;38.68;95428.25;10382526;28;96916;-69
2022/05/24 14:06:40;;;;;;;1.85;0.35;;;;;;;22.95;37.58;95432.75;10387324;28;97364;-69
2022/05/24 14:11:50;;;;;;;0.88;0.38;;;;;;;22.88;37.12;95444.66;10390480;27;96770;-69
2022/05/24 14:16:55;;;;;;;1.73;0.70;;;;;;;22.87;37.09;95435.84;10386338;28;96971;-68
2022/05/24 14:21:58;;;;;;;2.80;0.50;;;;;;;22.91;37.48;95444.97;10385480;28;96797;-69
2022/05/24 14:27:01;;;;;;;1.67;0.43;;;;;;;23.76;36.09;95436.72;10390207;27;96952;-68
2022/05/24 14:32:06;;;;;;;1.03;0.30;;;;;;;24.77;34.19;95437.88;10387832;28;97421;-68
2022/05/24 14:37:09;;;;;;;0.88;0.52;;;;;;;24.49;35.45;95433.66;10384428;28;96946;-69
2022/05/24 14:42:12;;;;;;;;;;;;;;;24.10;36.65;95431.97;10390100;28;97005;-69
2022/05/24 14:47:16;;;;;;;1.55;0.30;;;;;;;23.92;37.32;95435.00;10389325;28;96819;-69
2022/05/24 14:52:28;;;;;;;1.23;0.50;;;;;;;24.44;36.93;95434.44;10380684;28;97848;-70
2022/05/24 14:57:31;;;;;;;3.88;0.52;;;;;;;23.93;36.82;95436.59;10387832;27;96938;-69
2022/05/24 15:02:35;;;;;;;1.98;0.57;;;;;;;23.44;37.34;95433.94;10389427;28;96871;-69
2022/05/24 15:18:34;;;;;;;1.27;0.40;;;;;;;22.96;37.92;95430.88;10394258;28;96926;-69
2022/05/24 15:23:40;;;;;;;1.52;0.93;;;;;;;23.08;38.41;95438.78;10395413;27;96719;-69
2022/05/24 15:28:45;;;;;;;2.03;0.80;;;;;;;22.94;37.96;95433.81;10391270;27;96689;-69
2022/05/24 15:33:49;;;;;;;1.10;0.52;;;;;;;22.62;38.07;95439.75;10411832;27;98043;-69
2022/05/24 15:38:52;;;;;;;1.70;0.43;;;;;;;22.15;38.48;95440.03;10417110;27;97651;-69
2022/05/24 15:43:57;;;;;;;1.00;0.43;;;;;;;22.16;38.61;95456.78;10413721;27;97257;-69
2022/05/24 15:49:01;;;;;;;2.38;0.73;;;;;;;22.82;37.56;95438.41;10419059;27;98593;-69
2022/05/24 15:54:05;;;;;;;2.40;0.63;;;;;;;23.80;36.40;95439.69;10415659;28;97030;-69
2022/05/24 15:59:08;;;;;;;0.88;0.30;;;;;;;23.68;36.41;95445.94;10418255;27;96973;-69
2022/05/24 16:04:12;;;;;;;1.60;0.45;;;;;;;23.86;35.62;95441.31;10418325;28;99548;-69
2022/05/24 16:14:39;;;;;;;2.85;0.60;;;;;;;24.47;34.97;95444.59;10415442;27;96891;-70
2022/05/24 16:19:45;;;;;;;3.17;0.50;;;;;;;24.46;34.67;95444.84;10417867;27;97162;-69
2022/05/24 16:24:48;;;;;;;0.63;0.30;;;;;;;23.64;36.30;95444.84;10416687;27;96920;-69
2022/05/24 16:29:51;;;;;;;1.45;0.50;;;;;;;23.00;37.04;95450.69;10415695;28;96949;-69
2022/05/24 16:34:55;;;;;;;4.25;0.82;;;;;;;23.03;36.82;95460.84;10415380;28;96955;-70
2022/05/24 16:39:58;;;;;;;2.72;0.73;;;;;;;22.78;37.45;95453.28;10417467;27;96961;-70
2022/05/24 16:45:01;;;;;;;1.13;0.50;;;;;;;22.19;38.33;95445.66;10415913;28;96810;-69
2022/05/24 16:50:06;;;;;;;2.55;0.60;;;;;;;21.76;38.52;95453.19;10413203;28;96740;-69
2022/05/24 17:00:29;;;;;;;1.38;0.50;;;;;;;20.68;40.44;95471.28;10406140;28;97025;-69
2022/05/24 17:05:34;;;;;;;2.20;0.50;;;;;;;20.42;41.78;95464.56;10409036;27;98173;-69
2022/05/24 17:10:38;;;;;;;2.22;0.55;;;;;;;20.12;42.24;95465.44;10405906;27;98443;-69
2022/05/24 17:15:44;;;;;;;1.73;0.70;;;;;;;19.76;41.59;95483.03;10401881;27;98730;-69
2022/05/24 17:20:49;;;;;;;1.40;0.47;;;;;;;19.68;41.74;95480.69;10407236;27;98252;-70
2022/05/24 17:25:52;;;;;;;0.50;0.30;;;;;;;20.15;39.77;95486.22;10411342;27;98617;-69
2022/05/24 17:30:55;;;;;;;1.17;0.50;;;;;;;21.23;38.09;95475.47;10404074;27;97586;-69
2022/05/24 17:36:00;;;;;;;2.85;0.60;;;;;;;21.19;38.40;95474.28;10408143;28;97038;-69
2022/05/24 17:41:08;;;;;;;1.52;0.60;;;;;;;21.01;39.09;95481.38;10410542;27;101594;-69
2022/05/24 17:46:14;;;;;;;4.72;0.65;;;;;;;20.50;41.22;95498.75;10412366;28;97129;-69
2022/05/24 17:51:20;;;;;;;1.65;0.52;;;;;;;19.77;44.24;95500.56;10410069;28;96816;-69
2022/05/24 17:56:23;;;;;;;1.67;0.55;;;;;;;19.87;45.92;95500.88;10407768;27;97030;-69
2022/05/24 18:01:26;;;;;;;1.45;0.60;;;;;;;19.56;45.95;95505.28;10413525;27;97277;-69
2022/05/24 18:06:30;;;;;;;1.42;0.57;;;;;;;19.03;46.93;95500.56;10410623;28;96922;-69
2022/05/24 18:11:34;;;;;;;1.10;0.55;;;;;;;18.37;48.80;95507.19;10412576;27;96935;-69
2022/05/24 18:16:43;;;;;;;1.65;0.70;;;;;;;18.09;49.43;95518.97;10411655;28;96742;-69
2022/05/24 18:21:48;;;;;;;1.60;0.85;;;;;;;18.03;49.89;95533.00;10408317;27;97240;-69
2022/05/24 18:37:40;;;;;;;0.60;0.40;;;;;;;17.32;50.49;95548.72;10411477;28;96718;-69
2022/05/24 18:42:44;;;;;;;;;;;;;;;17.09;49.75;95545.69;10414945;27;96793;-69
2022/05/24 18:47:48;;;;;;;1.95;0.80;;;;;;;16.93;50.65;95542.47;10408330;27;97655;-69
2022/05/24 18:52:52;;;;;;;1.10;0.70;;;;;;;16.95;50.73;95542.25;10407649;27;97363;-69
2022/05/24 18:57:57;;;;;;;4.60;2.13;;;;;;;16.99;49.31;95546.94;10407454;27;97487;-68
2022/05/24 19:03:00;;;;;;;3.75;2.30;;;;;;;16.95;48.82;95543.09;10407104;27;97124;-69
2022/05/24 19:08:05;;;;;;;2.30;1.02;;;;;;;16.85;48.88;95566.44;10409097;27;96823;-69
2022/05/24 19:13:07;;;;;;;;;;;;;;;16.55;49.12;95565.97;10407829;27;97236;-68
2022/05/24 19:18:10;;;;;;;3.80;1.70;;;;;;;16.23;49.97;95582.34;10409911;27;97406;-70
2022/05/24 19:23:15;;;;;;;2.78;1.42;;;;;;;16.22;50.00;95595.72;10410913;27;98680;-68
2022/05/24 19:28:19;;;;;;;1.45;0.40;;;;;;;16.11;48.04;95605.00;10403607;27;97121;-69
2022/05/24 19:33:22;;;;;;;1.90;0.50;;;;;;;16.01;47.45;95615.09;10414159;27;97063;-69
2022/05/24 19:38:29;;;;;;;2.00;0.68;;;;;;;16.02;47.59;95627.28;10416982;27;98050;-68
2022/05/24 19:43:32;;;;;;;2.42;0.60;;;;;;;16.00;48.50;95634.56;10417164;27;96965;-68
2022/05/24 19:48:35;;;;;;;1.75;0.80;;;;;;;15.87;49.99;95648.47;10412770;27;97316;-69
2022/05/24 19:53:39;;;;;;;1.80;0.60;;;;;;;15.78;50.28;95653.09;10409621;27;97311;-68
2022/05/24 19:58:46;;;;;;;3.17;0.90;;;;;;;15.69;50.51;95654.28;10401956;27;97308;-68
2022/05/24 20:03:49;;;;;;;1.50;0.90;;;;;;;15.53;50.34;95663.25;10410588;28;97395;-69
2022/05/24 20:08:53;;;;;;;3.42;0.68;;;;;;;15.36;49.80;95668.00;10422168;27;100179;-69
2022/05/24 20:13:58;;;;;;;1.43;0.70;;;;;;;15.34;48.77;95677.91;10413142;27;99831;-69
2022/05/24 20:19:01;;;;;;;3.00;1.58;;;;;;;15.32;48.81;95682.53;10415100;27;97296;-71
2022/05/24 20:24:07;;;;;;;8.90;5.63;;;;;;;15.25;47.64;95695.66;10414003;27;97967;-68
2022/05/24 20:29:10;;;;;;;3.08;0.98;;;;;;;15.21;48.40;95694.41;10413844;27;98009;-70
2022/05/24 20:34:13;;;;;;;1.98;0.60;;;;;;;15.08;48.60;95704.81;10411117;28;97190;-70
2022/05/24 20:39:17;;;;;;;3.03;0.55;;;;;;;14.78;49.19;95693.59;10413036;27;96860;-69
2022/05/24 20:44:19;;;;;;;6.00;4.73;;;;;;;14.52;49.63;95710.72;10411248;28;97257;-69
2022/05/24 20:49:22;;;;;;;1.92;0.68;;;;;;;14.45;50.77;95713.25;10413269;28;97444;-69
2022/05/24 20:54:28;;;;;;;2.83;1.05;;;;;;;14.54;50.07;95699.03;10409342;27;97860;-69
2022/05/24 20:59:31;;;;;;;1.27;0.53;;;;;;;14.56;49.93;95690.97;10411114;27;98141;-69
2022/05/24 21:04:36;;;;;;;2.73;0.63;;;;;;;14.60;49.27;95707.97;10404986;27;97342;-69
2022/05/24 21:09:40;;;;;;;1.67;0.60;;;;;;;14.43;49.60;95722.34;10411666;27;96871;-69
2022/05/24 21:14:43;;;;;;;2.90;0.60;;;;;;;14.21;49.97;95714.38;10408934;27;97133;-68
2022/05/24 21:19:47;;;;;;;2.03;0.40;;;;;;;14.08;50.17;95719.47;10392021;27;97594;-69
2022/05/24 21:30:13;;;;;;;1.92;0.43;;;;;;;14.01;49.91;95708.88;10404813;27;97179;-69
2022/05/24 21:35:16;;;;;;;1.95;0.47;;;;;;;13.95;50.57;95699.91;10397636;27;98244;-69
2022/05/24 21:40:28;;;;;;;1.02;0.40;;;;;;;13.93;50.38;95703.69;10407685;27;97473;-70
2022/05/24 21:45:32;;;;;;;3.20;0.65;;;;;;;13.97;50.46;95732.06;10411465;27;97940;-69
2022/05/24 21:50:36;;;;;;;1.00;0.50;;;;;;;13.91;50.18;95724.88;10414216;27;97719;-70
2022/05/24 21:55:42;;;;;;;1.57;0.40;;;;;;;13.84;50.35;95736.31;10415881;27;97156;-69
2022/05/24 22:00:52;;;;;;;2.90;0.40;;;;;;;13.80;50.43;95738.47;10413560;27;102039;-70
2022/05/24 22:05:55;;;;;;;1.67;0.52;;;;;;;13.80;50.14;95748.97;10408533;27;98301;-70
2022/05/24 22:11:03;;;;;;;4.05;2.60;;;;;;;13.82;50.51;95737.28;10410801;27;97284;-68
2022/05/24 22:16:06;;;;;;;1.40;0.50;;;;;;;13.69;50.63;95752.88;10413108;28;96770;-68
2022/05/24 22:21:10;;;;;;;1.65;0.50;;;;;;;13.63;51.79;95764.88;10411920;27;97098;-71
2022/05/24 22:26:18;;;;;;;20.08;14.98;;;;;;;13.49;51.34;95757.78;10412171;27;97039;-70
2022/05/24 22:31:21;;;;;;;1.52;0.70;;;;;;;13.36;51.81;95762.81;10411038;27;100208;-69
2022/05/24 22:36:23;;;;;;;1.70;0.60;;;;;;;13.24;51.09;95760.63;10412422;27;96810;-68
2022/05/24 22:41:28;;;;;;;1.58;0.50;;;;;;;13.12;51.23;95762.03;10396605;27;100215;-68
2022/05/24 22:46:32;;;;;;;1.37;0.60;;;;;;;12.93;52.06;95768.56;10401850;27;97795;-68
2022/05/24 22:51:35;;;;;;;1.43;0.47;;;;;;;12.73;52.65;95772.56;10398259;27;98812;-68
2022/05/24 22:56:39;;;;;;;1.17;0.40;;;;;;;12.59;53.61;95769.69;10394837;27;96767;-68
2022/05/24 23:01:42;;;;;;;1.30;0.53;;;;;;;12.49;53.64;95767.28;10407409;27;97960;-68
2022/05/24 23:06:45;;;;;;;1.75;0.50;;;;;;;12.35;54.20;95760.13;10410373;27;98553;-68
2022/05/24 23:11:49;;;;;;;1.52;0.40;;;;;;;12.20;54.54;95760.03;10407611;27;98134;-68
2022/05/24 23:16:52;;;;;;;0.43;0.40;;;;;;;12.08;55.15;95758.78;10405362;27;97057;-69
2022/05/24 23:21:55;;;;;;;2.15;0.68;;;;;;;11.99;55.07;95762.38;10408161;27;97034;-68
2022/05/24 23:27:00;;;;;;;2.70;0.52;;;;;;;11.86;55.82;95761.13;10406903;27;98013;-68
2022/05/24 23:32:05;;;;;;;0.97;0.67;;;;;;;11.78;56.66;95762.94;10403944;27;98454;-68
2022/05/24 23:37:08;;;;;;;2.22;0.55;;;;;;;11.72;56.85;95760.00;10411111;27;97392;-68
2022/05/24 23:42:13;;;;;;;1.60;0.50;;;;;;;11.59;57.89;95757.09;10412447;27;98564;-68
2022/05/24 23:47:15;;;;;;;0.93;0.50;;;;;;;11.46;58.51;95757.59;10411255;27;96964;-68
2022/05/24 23:52:18;;;;;;;2.05;0.50;;;;;;;11.28;58.76;95755.13;10409073;27;96924;-68
2022/05/24 23:57:23;;;;;;;0.80;0.50;;;;;;;11.32;57.98;95761.69;10419523;28;96889;-68
